Cape Lookout Natl Seashore, North Carolina
Current Conditions -  °F | °C
As of 11:56 PM on Monday 22 Dec 2014 (Local Time) from KNBT Reporting Station
NA  
Wind Chill: 50°   Ceiling: NA
Heat Index: 50°   Visibility: NA
Dew Point: 46°   Wind: 8mph
Humidity: 86%   Direction: 310°NW
Pressure: 30"   Gusts: NA
Location:  34.88°N, 76.29°W
Report Text: KNBT 230456Z AUTO 31007KT 10/08 A3000 RMK AO2 SLP164 T01000078 PNO $
Loading
Personal Weather Stations






























Interactive Weather Map New forecast layout! Learn more

10-Day Weather Forecast

Advertisements
Track Severe Weather on mobile